Appleton, MN (56208)

7:14 PM CDT on July 23, 2016 (GMT -0500)
Appleton Municipal | | Change Station

Elev 1017 ft 45.23 °N, 96.00 °W | Updated 20 minutes ago

Scattered Clouds
Scattered Clouds
82 °F
Feels Like 88 °F
N
12
Wind Variable Wind from SE

Today
High -- | Low -- °F
--% Chance of Precip.
Yesterday
High -- | Low -- °F
Precip. -- in
Pressure 29.73 in
Visibility 10.0 miles
Clouds Scattered Clouds 1700 ft
Scattered Clouds 6000 ft
Heat Index 88 °F
Dew Point 73 °F
Humidity 74%
Rainfall 1.51 in
Snow Depth Not available.
5:59 AM 9:01 PM
Waning Gibbous, 81% visible
METAR KAQP 232354Z AUTO 13010KT 10SM SCT017 SCT060 28/23 A2973 RMK AO2
Pressure 29.73 in
Visibility 10.0 miles
Clouds Scattered Clouds 1700 ft
Scattered Clouds 6000 ft
Heat Index 88 °F
Dew Point 73 °F
Humidity 74%
Rainfall 1.51 in
Snow Depth Not available.
5:59 AM 9:01 PM
Waning Gibbous, 81% visible
METAR KAQP 232354Z AUTO 13010KT 10SM SCT017 SCT060 28/23 A2973 RMK AO2

10-Day Weather Forecast

Almanac

Astronomy

Jul. 23, 2016 Rise Set
Actual Time
Civil Twilight
Nautical Twilight
Astronomical Twilight
Moon
Length of Visible Light
Length of Day
Tomorrow will be .
, % of the Moon is Illuminated

Today's Extremes

State Highs State Lows

Community

WunderPhotos

Upload Photos

1,926,979 photos uploaded!

WunderBlog® & News

Nearby

Air Quality

  Air Quality AQ Index Pollutant
Not available.

Snow Depth

Station Depth Elevation

Earthquake Activity

City Distance Mag. Time & Date
Minimum magnitude displayed is 2.5.

Coastal Water Temperatures

Place Temperature

Stations

Nearby Weather Stations

Station Location Temp. Windchill Dew Point Humidity Wind Precip. Elev Updated Type
                   

Watches & Warnings

There are currently no watches in effect.